createdAt,value
2022-09-15T00:01:54.276Z,100059.47
2022-09-15T00:04:23.188Z,100065.56
2022-09-15T00:06:56.474Z,100064.72
2022-09-15T00:09:25.503Z,100066.41
2022-09-15T00:11:54.411Z,100072.28
2022-09-15T00:14:23.686Z,100076.56
2022-09-15T00:16:52.627Z,100072.44
2022-09-15T00:19:21.548Z,100081.78
2022-09-15T00:21:50.492Z,100088.84
2022-09-15T00:24:20.851Z,100086.00
2022-09-15T00:26:49.947Z,100087.31
2022-09-15T00:29:19.456Z,100083.22
2022-09-15T00:31:48.460Z,100074.34
2022-09-15T00:34:17.389Z,100072.03
2022-09-15T00:36:46.436Z,100069.25
2022-09-15T00:39:15.482Z,100064.31
2022-09-15T00:41:46.307Z,100074.03
2022-09-15T00:44:50.717Z,100073.84
2022-09-15T00:47:21.935Z,100065.97
2022-09-15T00:49:59.471Z,100067.25
2022-09-15T00:52:35.600Z,100070.38
2022-09-15T00:55:10.214Z,100069.72
2022-09-15T00:57:43.919Z,100066.47
2022-09-15T01:00:16.498Z,100068.06
2022-09-15T01:02:48.362Z,100066.09
2022-09-15T01:05:20.167Z,100067.91
2022-09-15T01:07:54.535Z,100070.50
2022-09-15T01:10:26.811Z,100061.69
2022-09-15T01:13:01.152Z,100064.94
2022-09-15T01:15:39.505Z,100066.91
2022-09-15T01:18:19.387Z,100069.38
2022-09-15T01:21:10.533Z,100054.91
2022-09-15T01:24:14.028Z,100067.09
2022-09-15T01:26:57.478Z,100061.31
2022-09-15T01:29:48.213Z,100059.38
2022-09-15T01:32:38.999Z,100060.69
2022-09-15T01:35:22.103Z,100059.03
2022-09-15T01:37:58.708Z,100056.41
2022-09-15T01:40:34.103Z,100047.19
2022-09-15T01:43:04.408Z,100057.25
2022-09-15T01:45:36.585Z,100062.19
2022-09-15T01:48:09.394Z,100053.94
2022-09-15T01:50:44.021Z,100058.25
2022-09-15T01:53:16.963Z,100060.03
2022-09-15T01:55:57.277Z,100064.31
2022-09-15T01:58:26.474Z,100063.00
2022-09-15T02:01:01.715Z,100066.97
2022-09-15T02:03:35.716Z,100068.44
2022-09-15T02:06:11.123Z,100069.59
2022-09-15T02:08:45.561Z,100067.31
2022-09-15T02:11:17.869Z,100072.88
2022-09-15T02:13:54.166Z,100069.59
2022-09-15T02:16:28.812Z,100063.34
2022-09-15T02:19:18.181Z,100065.19
2022-09-15T02:21:55.268Z,100072.25
2022-09-15T02:24:30.797Z,100072.41
2022-09-15T02:27:01.079Z,100080.44
2022-09-15T02:29:34.415Z,100082.44
2022-09-15T02:32:07.536Z,100093.13
2022-09-15T02:34:39.924Z,100086.41
2022-09-15T02:37:11.449Z,100085.72
2022-09-15T02:39:44.496Z,100085.22
2022-09-15T02:42:13.902Z,100087.22
2022-09-15T02:44:42.844Z,100080.28
2022-09-15T02:47:13.425Z,100081.28
2022-09-15T02:49:42.479Z,100080.28
2022-09-15T02:52:11.554Z,100086.53
2022-09-15T02:54:40.692Z,100083.25
2022-09-15T02:57:09.678Z,100082.09
2022-09-15T03:00:07.733Z,100082.44
2022-09-15T03:02:38.589Z,100076.50
2022-09-15T03:05:08.434Z,100077.50
2022-09-15T03:07:38.527Z,100082.09
2022-09-15T03:10:09.742Z,100084.56
2022-09-15T03:12:39.887Z,100085.38
2022-09-15T03:15:11.702Z,100087.53
2022-09-15T03:17:44.660Z,100080.78
2022-09-15T03:20:17.446Z,100078.13
2022-09-15T03:22:46.466Z,100077.63
2022-09-15T03:25:15.745Z,100082.25
2022-09-15T03:27:44.743Z,100090.81
2022-09-15T03:30:14.978Z,100085.72
2022-09-15T03:32:45.530Z,100080.28
2022-09-15T03:35:14.599Z,100086.22
2022-09-15T03:37:43.714Z,100090.97
2022-09-15T03:40:13.093Z,100074.03
2022-09-15T03:42:42.436Z,100082.09
2022-09-15T03:45:11.806Z,100083.09
2022-09-15T03:47:40.772Z,100078.13
2022-09-15T03:50:11.368Z,100078.78
2022-09-15T03:52:40.460Z,100072.00
2022-09-15T03:55:09.978Z,100081.06
2022-09-15T03:57:39.051Z,100077.44
2022-09-15T04:00:09.727Z,100070.88
2022-09-15T04:02:38.819Z,100077.78
2022-09-15T04:05:10.860Z,100072.66
2022-09-15T04:07:40.969Z,100070.19
2022-09-15T04:10:11.189Z,100067.56
2022-09-15T04:12:40.270Z,100068.84
2022-09-15T04:15:10.113Z,100070.38
2022-09-15T04:17:39.081Z,100070.53
2022-09-15T04:20:10.954Z,100068.25
2022-09-15T04:22:40.024Z,100074.66
2022-09-15T04:25:10.326Z,100070.19
2022-09-15T04:27:39.602Z,100074.66
2022-09-15T04:30:09.784Z,100071.34
2022-09-15T04:32:38.766Z,100070.69
2022-09-15T04:35:08.674Z,100064.44
2022-09-15T04:37:39.705Z,100068.56
2022-09-15T04:40:10.312Z,100056.56
2022-09-15T04:42:39.404Z,100069.56
2022-09-15T04:45:09.333Z,100072.00
2022-09-15T04:47:38.388Z,100071.38
2022-09-15T04:50:08.134Z,100066.75
2022-09-15T04:52:38.849Z,100067.25
2022-09-15T04:55:08.325Z,100063.00
2022-09-15T04:57:37.400Z,100068.59
2022-09-15T05:00:07.508Z,100067.25
2022-09-15T05:02:36.511Z,100069.25
2022-09-15T05:05:06.094Z,100062.66
2022-09-15T05:07:35.011Z,100055.91
2022-09-15T05:10:05.986Z,100062.66
2022-09-15T05:12:35.106Z,100058.38
2022-09-15T05:15:04.585Z,100061.34
2022-09-15T05:17:33.917Z,100060.38
2022-09-15T05:20:03.928Z,100061.34
2022-09-15T05:22:33.308Z,100060.38
2022-09-15T05:25:04.131Z,100068.91
2022-09-15T05:27:34.980Z,100070.88
2022-09-15T05:30:32.723Z,100068.59
2022-09-15T05:32:56.792Z,100061.00
2022-09-15T05:35:27.634Z,100069.91
2022-09-15T05:37:57.478Z,100072.38
2022-09-15T05:40:29.200Z,100078.94
2022-09-15T05:42:58.699Z,100074.50
2022-09-15T05:45:27.733Z,100070.06
2022-09-15T05:47:56.752Z,100074.53
2022-09-15T05:50:25.852Z,100074.22
2022-09-15T05:52:54.960Z,100068.63
2022-09-15T05:55:24.385Z,100066.00
2022-09-15T05:57:54.736Z,100065.50
2022-09-15T06:00:23.863Z,100071.94
2022-09-15T06:02:53.705Z,100080.47
2022-09-15T06:05:22.721Z,100084.59
2022-09-15T06:07:54.502Z,100088.72
2022-09-15T06:10:24.923Z,100102.34
2022-09-15T06:12:56.592Z,100098.75
2022-09-15T06:15:32.659Z,100093.00
2022-09-15T06:18:03.050Z,100091.50
2022-09-15T06:20:32.492Z,100096.13
2022-09-15T06:23:01.473Z,100086.75
2022-09-15T06:25:30.450Z,100089.38
2022-09-15T06:28:00.734Z,100086.31
2022-09-15T06:30:30.441Z,100088.94
2022-09-15T06:32:59.491Z,100095.69
2022-09-15T06:35:28.441Z,100089.38
2022-09-15T06:37:57.435Z,100108.84
2022-09-15T06:40:26.751Z,100098.31
2022-09-15T06:42:58.126Z,100101.09
2022-09-15T06:45:28.509Z,100099.44
2022-09-15T06:48:20.166Z,100097.81
2022-09-15T06:50:46.456Z,100100.44
2022-09-15T06:53:15.461Z,100105.56
2022-09-15T06:55:44.472Z,100102.06
2022-09-15T06:58:13.728Z,100102.06
2022-09-15T07:00:44.374Z,100105.06
2022-09-15T07:03:13.452Z,100096.34
2022-09-15T07:05:44.268Z,100103.22
2022-09-15T07:08:14.221Z,100101.47
2022-09-15T07:10:45.624Z,100104.06
2022-09-15T07:13:14.821Z,100097.06
2022-09-15T07:15:52.423Z,100101.50
2022-09-15T07:18:21.742Z,100098.16
2022-09-15T07:20:51.379Z,100102.63
2022-09-15T07:23:20.585Z,100100.03
2022-09-15T07:25:49.634Z,100099.50
2022-09-15T07:28:19.284Z,100097.16
2022-09-15T07:30:52.712Z,100104.19
2022-09-15T07:33:22.166Z,100101.88
2022-09-15T07:35:51.218Z,100099.72
2022-09-15T07:38:20.306Z,100105.06
2022-09-15T07:40:49.297Z,100105.81
2022-09-15T07:43:18.351Z,100102.91
2022-09-15T07:45:48.764Z,100110.72
2022-09-15T07:48:17.858Z,100116.06
2022-09-15T07:50:48.604Z,100120.78
2022-09-15T07:53:17.772Z,100122.31
2022-09-15T07:55:47.016Z,100120.97
2022-09-15T07:58:16.061Z,100132.19
2022-09-15T08:00:45.156Z,100125.34
2022-09-15T08:03:16.090Z,100121.91
2022-09-15T08:05:45.948Z,100126.53
2022-09-15T08:08:15.246Z,100131.94
2022-09-15T08:10:44.261Z,100132.78
2022-09-15T08:13:13.237Z,100129.53
2022-09-15T08:15:42.277Z,100134.41
2022-09-15T08:18:11.437Z,100127.34
2022-09-15T08:20:42.491Z,100130.28
2022-09-15T08:23:12.030Z,100128.63
2022-09-15T08:25:41.136Z,100137.09
2022-09-15T08:28:10.186Z,100133.84
2022-09-15T08:30:39.312Z,100138.38
2022-09-15T08:33:08.298Z,100139.38
2022-09-15T08:35:37.376Z,100131.69
2022-09-15T08:38:07.605Z,100135.72
2022-09-15T08:40:38.612Z,100135.28
2022-09-15T08:43:17.128Z,100138.13
2022-09-15T08:45:53.377Z,100134.13
2022-09-15T08:48:28.347Z,100136.31
2022-09-15T08:51:00.880Z,100145.78
2022-09-15T08:53:34.518Z,100142.94
2022-09-15T08:56:11.229Z,100150.50
2022-09-15T08:58:40.367Z,100149.16
2022-09-15T09:01:22.854Z,100141.81
2022-09-15T09:04:17.516Z,100137.25
2022-09-15T09:07:00.505Z,100136.47
2022-09-15T09:09:41.356Z,100127.09
2022-09-15T09:12:30.416Z,100137.63
2022-09-15T09:15:13.416Z,100135.56
2022-09-15T09:18:00.446Z,100126.06
2022-09-15T09:20:38.349Z,100128.22
2022-09-15T09:23:14.552Z,100130.56
2022-09-15T09:25:45.765Z,100135.16
2022-09-15T09:28:29.266Z,100140.66
2022-09-15T09:31:08.341Z,100148.81
2022-09-15T09:33:47.831Z,100151.34
2022-09-15T09:36:17.310Z,100147.59
2022-09-15T09:38:49.210Z,100152.00
2022-09-15T09:41:22.198Z,100152.09
2022-09-15T09:43:53.334Z,100149.63
2022-09-15T09:46:22.822Z,100158.53
2022-09-15T09:48:59.678Z,100160.25
2022-09-15T09:51:33.429Z,100163.34
2022-09-15T09:54:08.682Z,100158.19
2022-09-15T09:56:39.733Z,100147.72
2022-09-15T09:59:35.526Z,100155.28
2022-09-15T10:02:16.625Z,100155.34
2022-09-15T10:04:47.172Z,100156.00
2022-09-15T10:07:18.824Z,100148.31
2022-09-15T10:09:54.436Z,100145.38
2022-09-15T10:12:32.086Z,100146.41
2022-09-15T10:15:03.399Z,100151.66
2022-09-15T10:17:45.692Z,100142.88
2022-09-15T10:20:32.426Z,100137.34
2022-09-15T10:23:07.374Z,100138.94
2022-09-15T10:25:58.500Z,100129.84
2022-09-15T10:28:29.458Z,100141.38
2022-09-15T10:31:04.761Z,100132.91
2022-09-15T10:33:35.318Z,100124.97
2022-09-15T10:36:07.369Z,100138.41
2022-09-15T10:38:42.859Z,100126.13
2022-09-15T10:41:28.422Z,100125.09
2022-09-15T10:44:27.390Z,100125.16
2022-09-15T10:47:02.500Z,100121.91
2022-09-15T10:49:57.613Z,100131.16
2022-09-15T10:52:40.307Z,100123.19
2022-09-15T10:55:32.129Z,100134.81
2022-09-15T10:58:31.442Z,100123.38
2022-09-15T11:01:18.213Z,100115.28
2022-09-15T11:04:12.359Z,100116.41
2022-09-15T11:06:48.668Z,100122.81
2022-09-15T11:09:23.316Z,100121.00
2022-09-15T11:12:03.421Z,100125.22
2022-09-15T11:14:45.701Z,100127.13
2022-09-15T11:17:26.256Z,100145.84
2022-09-15T11:20:27.298Z,100163.28
2022-09-15T11:23:03.510Z,100153.91
2022-09-15T11:25:38.310Z,100175.47
2022-09-15T11:28:16.363Z,100169.53
2022-09-15T11:30:53.193Z,100173.47
2022-09-15T11:33:32.130Z,100175.88
2022-09-15T11:36:06.143Z,100173.75
2022-09-15T11:38:42.891Z,100180.56
2022-09-15T11:41:23.742Z,100171.25
2022-09-15T11:44:07.145Z,100166.91
2022-09-15T11:46:49.775Z,100169.81
2022-09-15T11:49:24.138Z,100165.34
2022-09-15T11:51:59.928Z,100149.06
2022-09-15T11:54:40.338Z,100154.91
2022-09-15T11:57:19.600Z,100150.75
2022-09-15T11:59:56.308Z,100150.75
2022-09-15T12:02:31.417Z,100145.78
2022-09-15T12:05:15.453Z,100145.66
2022-09-15T12:07:51.600Z,100154.53
2022-09-15T12:10:25.302Z,100150.88
2022-09-15T12:12:55.572Z,100142.34
2022-09-15T12:15:27.583Z,100154.94
2022-09-15T12:18:27.267Z,100147.50
2022-09-15T12:21:07.231Z,100134.81
2022-09-15T12:23:42.097Z,100148.94
2022-09-15T12:26:18.302Z,100139.78
2022-09-15T12:28:56.039Z,100146.22
2022-09-15T12:31:43.379Z,100135.50
2022-09-15T12:34:34.452Z,100132.97
2022-09-15T12:37:13.624Z,100124.38
2022-09-15T12:39:44.432Z,100128.13
2022-09-15T12:42:20.704Z,100138.66
2022-09-15T12:44:53.595Z,100156.13
2022-09-15T12:47:33.521Z,100175.69
2022-09-15T12:50:08.711Z,100169.69
2022-09-15T12:52:49.868Z,100166.78
2022-09-15T12:55:21.809Z,100155.28
2022-09-15T12:57:57.213Z,100161.78
2022-09-15T13:00:45.532Z,100165.34
2022-09-15T13:03:49.844Z,100157.91
2022-09-15T13:06:21.707Z,100153.91
2022-09-15T13:08:54.543Z,100157.03
2022-09-15T13:11:29.543Z,100170.44
2022-09-15T13:14:17.652Z,100175.00
2022-09-15T13:16:53.794Z,100181.59
2022-09-15T13:19:29.634Z,100191.97
2022-09-15T13:22:04.248Z,100199.59
2022-09-15T13:24:51.649Z,100192.13
2022-09-15T13:27:24.706Z,100190.50
2022-09-15T13:30:01.322Z,100186.66
2022-09-15T13:32:43.604Z,100183.53
2022-09-15T13:35:32.737Z,100179.59
2022-09-15T13:38:31.674Z,100190.97
2022-09-15T13:41:43.988Z,100197.41
2022-09-15T13:44:57.490Z,100184.06
2022-09-15T13:47:42.664Z,100186.47
2022-09-15T13:50:18.196Z,100184.69
2022-09-15T13:53:12.881Z,100187.06
2022-09-15T13:55:44.292Z,100187.38
2022-09-15T14:01:08.634Z,100167.41
2022-09-15T14:03:43.489Z,100172.59
2022-09-15T14:06:15.733Z,100164.53
2022-09-15T14:08:48.379Z,100160.09
2022-09-15T14:11:23.552Z,100163.81
2022-09-15T14:13:53.525Z,100156.09
2022-09-15T14:16:34.752Z,100167.78
2022-09-15T14:19:22.481Z,100166.66
2022-09-15T14:21:56.244Z,100161.97
2022-09-15T14:24:30.193Z,100167.72
2022-09-15T14:27:03.280Z,100156.56
2022-09-15T14:29:32.461Z,100167.19
2022-09-15T14:32:03.967Z,100172.81
2022-09-15T14:34:37.126Z,100173.59
2022-09-15T14:37:09.018Z,100207.19
2022-09-15T14:39:40.215Z,100233.56
2022-09-15T14:42:21.629Z,100238.63
2022-09-15T14:47:44.005Z,100214.72
2022-09-15T14:50:16.787Z,100211.28
2022-09-15T14:52:49.389Z,100209.44
2022-09-15T14:55:24.914Z,100211.09
2022-09-15T14:57:58.482Z,100206.16
2022-09-15T15:00:32.195Z,100198.09
2022-09-15T15:03:20.241Z,100197.94
2022-09-15T15:06:02.743Z,100193.03
2022-09-15T15:08:41.402Z,100192.97
2022-09-15T15:11:15.658Z,100195.25
2022-09-15T15:13:49.913Z,100179.84
2022-09-15T15:16:26.882Z,100181.09
2022-09-15T15:18:58.756Z,100180.41
2022-09-15T15:21:43.488Z,100172.53
2022-09-15T15:24:24.128Z,100179.28
2022-09-15T15:26:58.008Z,100175.69
2022-09-15T15:29:43.276Z,100182.34
2022-09-15T15:32:15.929Z,100181.00
2022-09-15T15:34:56.450Z,100181.34
2022-09-15T15:37:32.254Z,100180.84
2022-09-15T15:40:05.836Z,100191.63
2022-09-15T15:42:37.154Z,100193.81
2022-09-15T15:45:23.349Z,100184.94
2022-09-15T15:47:53.690Z,100193.47
2022-09-15T15:50:28.105Z,100193.38
2022-09-15T15:52:58.313Z,100188.78
2022-09-15T15:55:38.227Z,100198.25
2022-09-15T15:58:10.371Z,100192.78
2022-09-15T16:00:44.301Z,100192.84
2022-09-15T16:03:14.859Z,100191.34
2022-09-15T16:05:48.479Z,100187.88
2022-09-15T16:08:25.975Z,100177.03
2022-09-15T16:10:57.706Z,100187.88
2022-09-15T16:13:28.667Z,100186.22
2022-09-15T16:16:00.420Z,100182.09
2022-09-15T16:18:31.462Z,100185.56
2022-09-15T16:21:02.636Z,100181.13
2022-09-15T16:23:33.332Z,100186.41
2022-09-15T16:26:06.455Z,100186.72
2022-09-15T16:28:36.301Z,100189.50
2022-09-15T16:31:05.559Z,100186.34
2022-09-15T16:33:38.007Z,100198.84
2022-09-15T16:36:13.144Z,100192.22
2022-09-15T16:38:42.655Z,100182.34
2022-09-15T16:41:17.259Z,100196.31
2022-09-15T16:43:47.896Z,100200.34
2022-09-15T16:46:22.033Z,100190.59
2022-09-15T16:48:51.012Z,100186.00
2022-09-15T16:51:29.825Z,100192.47
2022-09-15T16:54:02.098Z,100190.16
2022-09-15T16:56:32.298Z,100187.38
2022-09-15T16:59:03.135Z,100192.16
2022-09-15T17:01:33.710Z,100190.84
2022-09-15T17:04:04.118Z,100191.34
2022-09-15T17:06:35.481Z,100198.59
2022-09-15T17:09:04.479Z,100200.56
2022-09-15T17:11:34.645Z,100199.44
2022-09-15T17:14:07.716Z,100203.84
2022-09-15T17:16:36.758Z,100197.09
2022-09-15T17:19:08.286Z,100198.66
2022-09-15T17:21:41.359Z,100198.03
2022-09-15T17:24:11.420Z,100201.78
2022-09-15T17:26:41.200Z,100209.00
2022-09-15T17:29:11.555Z,100206.50
2022-09-15T17:31:41.844Z,100211.91
2022-09-15T17:34:15.547Z,100203.47
2022-09-15T17:36:46.723Z,100210.38
2022-09-15T17:39:16.785Z,100218.59
2022-09-15T17:41:47.766Z,100215.78
2022-09-15T17:44:18.201Z,100217.53
2022-09-15T17:46:48.660Z,100211.53
2022-09-15T17:49:18.107Z,100210.72
2022-09-15T17:51:48.409Z,100210.16
2022-09-15T17:54:17.464Z,100212.78
2022-09-15T17:56:46.388Z,100200.25
2022-09-15T17:59:16.352Z,100203.88
2022-09-15T18:01:45.600Z,100209.91
2022-09-15T18:04:14.733Z,100211.03
2022-09-15T18:06:45.625Z,100213.59
2022-09-15T18:09:16.631Z,100215.16
2022-09-15T18:11:45.654Z,100215.94
2022-09-15T18:14:14.650Z,100215.88
2022-09-15T18:16:45.145Z,100220.06
2022-09-15T18:19:14.157Z,100226.69
2022-09-15T18:21:44.614Z,100224.28
2022-09-15T18:24:17.759Z,100223.63
2022-09-15T18:26:46.671Z,100227.88
2022-09-15T18:29:15.603Z,100229.09
2022-09-15T18:31:44.904Z,100225.84
2022-09-15T18:34:14.358Z,100227.88
2022-09-15T18:36:43.398Z,100226.53
2022-09-15T18:39:12.459Z,100228.44
2022-09-15T18:41:42.801Z,100228.59
2022-09-15T18:44:11.855Z,100226.78
2022-09-15T18:46:40.822Z,100230.91
2022-09-15T18:49:09.880Z,100225.97
2022-09-15T18:51:51.176Z,100227.97
2022-09-15T18:54:20.803Z,100228.03
2022-09-15T18:56:51.370Z,100237.50
2022-09-15T18:59:20.583Z,100227.72
2022-09-15T19:01:49.571Z,100233.84
2022-09-15T19:04:18.724Z,100236.00
2022-09-15T19:06:47.741Z,100236.16
2022-09-15T19:09:16.667Z,100232.69
2022-09-15T19:11:45.677Z,100228.41
2022-09-15T19:14:16.067Z,100241.16
2022-09-15T19:16:57.175Z,100244.03
2022-09-15T19:19:27.485Z,100247.19
2022-09-15T19:21:56.514Z,100248.38
2022-09-15T19:24:31.802Z,100246.81
2022-09-15T19:27:01.058Z,100246.28
2022-09-15T19:29:34.746Z,100243.97
2022-09-15T19:32:05.272Z,100251.09
2022-09-15T19:34:34.347Z,100252.50
2022-09-15T19:37:08.057Z,100246.41
2022-09-15T19:39:40.686Z,100248.69
2022-09-15T19:42:11.006Z,100249.56
2022-09-15T19:44:42.825Z,100246.88
2022-09-15T19:47:11.929Z,100254.47
2022-09-15T19:49:40.975Z,100256.88
2022-09-15T19:52:10.043Z,100248.78
2022-09-15T19:54:39.540Z,100254.81
2022-09-15T19:57:08.478Z,100257.63
2022-09-15T19:59:37.569Z,100248.00
2022-09-15T20:02:10.454Z,100255.22
2022-09-15T20:04:39.936Z,100258.97
2022-09-15T20:07:08.857Z,100257.69
2022-09-15T20:09:37.910Z,100258.16
2022-09-15T20:12:07.559Z,100255.91
2022-09-15T20:14:36.580Z,100256.34
2022-09-15T20:17:07.167Z,100260.63
2022-09-15T20:19:36.845Z,100259.81
2022-09-15T20:22:05.846Z,100264.88
2022-09-15T20:24:35.130Z,100265.94
2022-09-15T20:27:04.233Z,100260.47
2022-09-15T20:29:33.405Z,100270.72
2022-09-15T20:32:02.446Z,100266.47
2022-09-15T20:34:32.852Z,100264.03
2022-09-15T20:37:01.820Z,100262.53
2022-09-15T20:39:30.716Z,100264.56
2022-09-15T20:41:59.819Z,100271.47
2022-09-15T20:44:28.713Z,100275.63
2022-09-15T20:46:57.747Z,100266.25
2022-09-15T20:49:26.707Z,100270.00
2022-09-15T20:51:57.206Z,100270.16
2022-09-15T20:54:26.292Z,100262.03
2022-09-15T20:56:55.498Z,100256.81
2022-09-15T20:59:24.495Z,100269.94
2022-09-15T21:01:53.636Z,100259.44
2022-09-15T21:04:22.625Z,100267.19
2022-09-15T21:06:51.550Z,100269.66
2022-09-15T21:09:22.314Z,100263.03
2022-09-15T21:11:53.668Z,100271.91
2022-09-15T21:14:22.703Z,100276.63
2022-09-15T21:16:51.681Z,100280.88
2022-09-15T21:19:20.671Z,100277.59
2022-09-15T21:21:49.648Z,100280.19
2022-09-15T21:24:18.557Z,100279.38
2022-09-15T21:27:06.593Z,100273.72
2022-09-15T21:29:35.655Z,100275.81
2022-09-15T21:32:04.971Z,100279.13
2022-09-15T21:34:34.332Z,100263.66
2022-09-15T21:37:03.431Z,100271.69
2022-09-15T21:39:32.523Z,100267.72
2022-09-15T21:42:03.168Z,100275.88
2022-09-15T21:44:32.307Z,100283.56
2022-09-15T21:47:01.424Z,100274.22
2022-09-15T21:49:31.281Z,100271.34
2022-09-15T21:52:00.346Z,100272.13
2022-09-15T21:54:29.397Z,100277.69
2022-09-15T21:56:58.411Z,100277.38
2022-09-15T21:59:28.737Z,100283.47
2022-09-15T22:01:57.832Z,100279.09
2022-09-15T22:04:26.814Z,100281.19
2022-09-15T22:06:55.812Z,100284.22
2022-09-15T22:09:25.679Z,100280.91
2022-09-15T22:11:54.585Z,100280.78
2022-09-15T22:14:23.514Z,100283.69
2022-09-15T22:16:55.274Z,100282.72
2022-09-15T22:19:24.337Z,100284.66
2022-09-15T22:21:53.315Z,100289.84
2022-09-15T22:24:22.258Z,100290.13
2022-09-15T22:26:51.387Z,100293.03
2022-09-15T22:29:20.435Z,100289.72
2022-09-15T22:31:49.449Z,100299.41
2022-09-15T22:34:20.412Z,100296.38
2022-09-15T22:36:49.393Z,100295.66
2022-09-15T22:39:18.368Z,100294.84
2022-09-15T22:41:47.309Z,100294.44
2022-09-15T22:44:20.604Z,100291.09
2022-09-15T22:46:51.397Z,100290.16
2022-09-15T22:49:21.741Z,100292.22
2022-09-15T22:51:50.644Z,100292.22
2022-09-15T22:54:19.680Z,100286.69
2022-09-15T22:56:48.587Z,100284.66
2022-09-15T22:59:17.689Z,100281.88
2022-09-15T23:01:47.087Z,100282.56
2022-09-15T23:04:16.937Z,100286.56
2022-09-15T23:06:48.924Z,100293.06
2022-09-15T23:09:19.176Z,100288.22
2022-09-15T23:11:48.415Z,100285.47
2022-09-15T23:14:18.619Z,100283.13
2022-09-15T23:16:47.590Z,100282.56
2022-09-15T23:19:16.616Z,100282.31
2022-09-15T23:21:47.174Z,100283.69
2022-09-15T23:24:17.066Z,100291.00
2022-09-15T23:26:46.278Z,100286.84
2022-09-15T23:29:15.505Z,100279.84
2022-09-15T23:31:44.607Z,100286.31
2022-09-15T23:34:13.590Z,100281.91
2022-09-15T23:36:42.530Z,100280.13
2022-09-15T23:39:12.793Z,100284.22
2022-09-15T23:41:41.868Z,100283.81
2022-09-15T23:44:10.915Z,100279.25
2022-09-15T23:46:40.116Z,100275.78
2022-09-15T23:49:09.231Z,100272.50
2022-09-15T23:51:38.351Z,100283.69
2022-09-15T23:54:07.483Z,100269.06
2022-09-15T23:56:37.794Z,100280.41
2022-09-15T23:59:06.981Z,100275.69
